createdAt,value
2019-03-04T00:01:36.329Z,85.16
2019-03-04T00:02:46.509Z,85.29
2019-03-04T00:03:56.115Z,84.77
2019-03-04T00:05:07.028Z,84.88
2019-03-04T00:06:14.019Z,84.87
2019-03-04T00:07:18.407Z,85.08
2019-03-04T00:08:22.682Z,84.49
2019-03-04T00:09:27.273Z,85.00
2019-03-04T00:10:31.524Z,84.77
2019-03-04T00:11:36.339Z,84.80
2019-03-04T00:12:40.974Z,84.95
2019-03-04T00:13:45.595Z,84.78
2019-03-04T00:14:49.838Z,84.46
2019-03-04T00:15:54.137Z,84.27
2019-03-04T00:17:01.554Z,84.25
2019-03-04T00:18:06.222Z,84.28
2019-03-04T00:19:13.309Z,84.24
2019-03-04T00:20:20.305Z,84.25
2019-03-04T00:21:24.552Z,84.40
2019-03-04T00:22:29.115Z,84.17
2019-03-04T00:23:36.209Z,84.22
2019-03-04T00:24:40.478Z,84.14
2019-03-04T00:25:47.464Z,84.02
2019-03-04T00:26:54.459Z,84.15
2019-03-04T00:27:59.113Z,83.85
2019-03-04T00:29:03.740Z,84.25
2019-03-04T00:30:11.884Z,83.95
2019-03-04T00:31:16.594Z,83.89
2019-03-04T00:32:20.883Z,83.53
2019-03-04T00:33:25.128Z,83.76
2019-03-04T00:34:29.962Z,83.80
2019-03-04T00:35:37.160Z,83.99
2019-03-04T00:36:41.960Z,83.76
2019-03-04T00:37:49.254Z,83.40
2019-03-04T00:38:56.588Z,83.55
2019-03-04T00:40:05.089Z,83.01
2019-03-04T00:41:12.069Z,83.08
2019-03-04T00:42:19.380Z,83.17
2019-03-04T00:43:26.666Z,83.23
2019-03-04T00:44:34.017Z,83.35
2019-03-04T00:45:41.295Z,83.00
2019-03-04T00:46:45.611Z,83.38
2019-03-04T00:47:52.886Z,83.23
2019-03-04T00:48:57.215Z,83.51
2019-03-04T00:50:06.126Z,83.76
2019-03-04T00:51:10.377Z,83.62
2019-03-04T00:52:17.589Z,83.45
2019-03-04T00:53:22.242Z,83.50
2019-03-04T00:54:26.497Z,83.61
2019-03-04T00:55:31.684Z,83.93
2019-03-04T00:56:36.097Z,83.62
2019-03-04T00:57:42.671Z,83.47
2019-03-04T00:58:46.890Z,83.74
2019-03-04T00:59:51.234Z,83.76
2019-03-04T01:00:56.545Z,83.43
2019-03-04T01:02:00.788Z,83.59
2019-03-04T01:03:08.391Z,83.61
2019-03-04T01:04:12.632Z,83.61
2019-03-04T01:05:19.597Z,83.32
2019-03-04T01:06:24.260Z,83.35
2019-03-04T01:07:28.591Z,83.43
2019-03-04T01:08:35.654Z,83.37
2019-03-04T01:09:39.928Z,83.28
2019-03-04T01:10:44.611Z,82.81
2019-03-04T01:11:48.895Z,82.81
2019-03-04T01:12:53.154Z,83.05
2019-03-04T01:13:57.724Z,83.25
2019-03-04T01:15:02.005Z,83.35
2019-03-04T01:16:07.825Z,82.85
2019-03-04T01:17:13.145Z,82.64
2019-03-04T01:18:20.485Z,82.64
2019-03-04T01:19:24.723Z,82.49
2019-03-04T01:20:29.018Z,82.10
2019-03-04T01:21:36.199Z,82.05
2019-03-04T01:22:40.486Z,82.02
2019-03-04T01:23:47.396Z,81.98
2019-03-04T01:24:51.715Z,81.62
2019-03-04T01:25:56.630Z,81.36
2019-03-04T01:27:03.625Z,81.49
2019-03-04T01:28:08.213Z,81.15
2019-03-04T01:29:12.538Z,80.41
2019-03-04T01:30:22.291Z,80.37
2019-03-04T01:31:29.273Z,79.94
2019-03-04T01:32:33.571Z,80.46
2019-03-04T01:33:40.804Z,80.41
2019-03-04T01:34:48.063Z,80.54
2019-03-04T01:35:54.997Z,80.00
2019-03-04T01:36:59.270Z,80.19
2019-03-04T01:38:03.513Z,80.18
2019-03-04T01:39:07.844Z,79.91
2019-03-04T01:40:17.537Z,80.08
2019-03-04T01:41:24.822Z,79.97
2019-03-04T01:42:31.776Z,79.87
2019-03-04T01:43:36.369Z,79.66
2019-03-04T01:44:40.987Z,79.80
2019-03-04T01:45:45.275Z,80.03
2019-03-04T01:46:52.616Z,79.83
2019-03-04T01:47:56.858Z,79.59
2019-03-04T01:49:04.104Z,79.98
2019-03-04T01:50:13.239Z,79.99
2019-03-04T01:51:18.600Z,79.89
2019-03-04T01:52:23.241Z,79.61
2019-03-04T01:53:30.215Z,79.87
2019-03-04T01:54:34.475Z,79.40
2019-03-04T01:55:39.211Z,78.99
2019-03-04T01:56:43.479Z,78.99
2019-03-04T01:57:47.778Z,79.20
2019-03-04T01:58:52.196Z,79.47
2019-03-04T01:59:56.510Z,79.41
2019-03-04T02:01:00.903Z,79.15
2019-03-04T02:02:05.150Z,79.12
2019-03-04T02:03:10.808Z,79.37
2019-03-04T02:04:15.416Z,79.85
2019-03-04T02:05:20.387Z,79.87
2019-03-04T02:06:24.972Z,79.85
2019-03-04T02:07:29.233Z,79.88
2019-03-04T02:08:33.496Z,79.96
2019-03-04T02:09:37.723Z,80.20
2019-03-04T02:10:42.392Z,80.06
2019-03-04T02:11:47.136Z,80.04
2019-03-04T02:12:51.375Z,80.08
2019-03-04T02:13:55.635Z,80.08
2019-03-04T02:14:59.880Z,80.18
2019-03-04T02:16:05.637Z,80.23
2019-03-04T02:17:12.789Z,80.38
2019-03-04T02:18:20.968Z,80.68
2019-03-04T02:19:25.230Z,80.80
2019-03-04T02:20:29.458Z,81.05
2019-03-04T02:21:33.734Z,81.29
2019-03-04T02:22:38.487Z,81.24
2019-03-04T02:23:43.043Z,81.30
2019-03-04T02:24:47.382Z,81.06
2019-03-04T02:25:55.193Z,81.16
2019-03-04T02:26:59.478Z,81.39
2019-03-04T02:28:03.739Z,81.45
2019-03-04T02:29:08.003Z,81.27
2019-03-04T02:30:18.444Z,81.33
2019-03-04T02:31:22.704Z,81.51
2019-03-04T02:32:30.742Z,81.17
2019-03-04T02:33:38.018Z,81.10
2019-03-04T02:34:42.265Z,81.20
2019-03-04T02:35:46.662Z,81.15
2019-03-04T02:36:51.298Z,81.21
2019-03-04T02:37:55.906Z,81.25
2019-03-04T02:39:00.503Z,81.40
2019-03-04T02:40:07.873Z,81.42
2019-03-04T02:41:12.505Z,81.41
2019-03-04T02:42:16.808Z,81.51
2019-03-04T02:43:21.133Z,81.58
2019-03-04T02:44:25.813Z,81.89
2019-03-04T02:45:33.059Z,81.91
2019-03-04T02:46:40.312Z,82.15
2019-03-04T02:47:44.570Z,82.30
2019-03-04T02:48:48.871Z,82.43
2019-03-04T02:49:56.508Z,81.76
2019-03-04T02:51:00.795Z,81.70
2019-03-04T02:52:08.019Z,81.36
2019-03-04T02:53:15.207Z,81.39
2019-03-04T02:54:19.457Z,81.54
2019-03-04T02:55:23.765Z,81.78
2019-03-04T02:56:30.993Z,81.73
2019-03-04T02:57:35.242Z,81.81
2019-03-04T02:58:39.521Z,82.03
2019-03-04T02:59:43.895Z,81.79
2019-03-04T03:00:48.191Z,81.85
2019-03-04T03:01:53.422Z,82.14
2019-03-04T03:02:57.682Z,81.94
2019-03-04T03:04:02.008Z,81.91
2019-03-04T03:05:09.310Z,81.67
2019-03-04T03:06:13.598Z,81.75
2019-03-04T03:07:21.039Z,81.70
2019-03-04T03:08:25.305Z,82.03
2019-03-04T03:09:29.570Z,81.57
2019-03-04T03:10:33.807Z,81.62
2019-03-04T03:11:38.098Z,81.80
2019-03-04T03:12:42.359Z,82.12
2019-03-04T03:13:49.302Z,81.88
2019-03-04T03:14:56.594Z,82.16
2019-03-04T03:16:00.838Z,82.34
2019-03-04T03:17:08.802Z,82.49
2019-03-04T03:18:13.051Z,82.15
2019-03-04T03:19:17.567Z,82.02
2019-03-04T03:20:24.994Z,82.05
2019-03-04T03:21:29.611Z,81.85
2019-03-04T03:22:33.971Z,82.04
2019-03-04T03:23:38.246Z,82.17
2019-03-04T03:24:45.261Z,82.33
2019-03-04T03:25:52.737Z,82.45
2019-03-04T03:26:57.006Z,82.53
2019-03-04T03:28:01.276Z,82.20
2019-03-04T03:29:05.971Z,82.07
2019-03-04T03:30:12.786Z,82.18
2019-03-04T03:31:19.896Z,82.32
2019-03-04T03:32:24.185Z,82.27
2019-03-04T03:33:31.349Z,82.28
2019-03-04T03:34:38.365Z,82.28
2019-03-04T03:35:42.653Z,82.01
2019-03-04T03:36:47.315Z,82.17
2019-03-04T03:37:51.563Z,82.23
2019-03-04T03:38:56.224Z,82.53
2019-03-04T03:40:00.825Z,82.37
2019-03-04T03:41:05.765Z,82.29
2019-03-04T03:42:10.488Z,82.15
2019-03-04T03:43:14.735Z,82.09
2019-03-04T03:44:18.980Z,82.00
2019-03-04T03:45:26.177Z,81.81
2019-03-04T03:46:30.763Z,81.77
2019-03-04T03:47:37.738Z,82.11
2019-03-04T03:48:42.099Z,82.35
2019-03-04T03:49:46.758Z,82.56
2019-03-04T03:50:54.353Z,82.62
2019-03-04T03:52:01.646Z,82.70
2019-03-04T03:53:08.586Z,83.00
2019-03-04T03:54:12.830Z,83.25
2019-03-04T03:55:19.797Z,83.26
2019-03-04T03:56:26.728Z,83.35
2019-03-04T03:57:33.954Z,83.29
2019-03-04T03:58:38.207Z,83.45
2019-03-04T03:59:45.156Z,83.59
2019-03-04T04:00:49.389Z,83.76
2019-03-04T04:01:53.642Z,83.97
2019-03-04T04:02:59.861Z,83.89
2019-03-04T04:04:06.827Z,84.02
2019-03-04T04:05:11.052Z,84.29
2019-03-04T04:06:15.649Z,84.43
2019-03-04T04:07:22.641Z,84.32
2019-03-04T04:08:26.941Z,84.26
2019-03-04T04:09:31.796Z,84.37
2019-03-04T04:10:38.955Z,84.31
2019-03-04T04:11:44.776Z,84.33
2019-03-04T04:12:50.004Z,84.19
2019-03-04T04:13:54.245Z,84.24
2019-03-04T04:14:58.558Z,84.25
2019-03-04T04:16:05.777Z,84.32
2019-03-04T04:17:12.994Z,84.21
2019-03-04T04:18:17.247Z,84.06
2019-03-04T04:19:21.494Z,84.15
2019-03-04T04:20:25.750Z,84.08
2019-03-04T04:21:33.027Z,84.19
2019-03-04T04:22:37.300Z,84.22
2019-03-04T04:23:42.242Z,84.23
2019-03-04T04:24:46.497Z,84.10
2019-03-04T04:25:53.779Z,84.05
2019-03-04T04:27:01.041Z,84.14
2019-03-04T04:28:07.187Z,84.26
2019-03-04T04:29:14.407Z,84.29
2019-03-04T04:30:20.578Z,83.96
2019-03-04T04:31:24.868Z,83.95
2019-03-04T04:32:32.573Z,84.09
2019-03-04T04:33:36.835Z,84.18
2019-03-04T04:34:41.086Z,83.61
2019-03-04T04:35:45.344Z,83.45
2019-03-04T04:36:49.595Z,83.52
2019-03-04T04:37:54.262Z,83.26
2019-03-04T04:38:58.494Z,83.28
2019-03-04T04:40:02.792Z,83.22
2019-03-04T04:41:11.211Z,83.54
2019-03-04T04:42:16.822Z,83.33
2019-03-04T04:43:24.036Z,83.47
2019-03-04T04:44:28.304Z,83.41
2019-03-04T04:45:32.531Z,83.49
2019-03-04T04:46:51.256Z,83.41
2019-03-04T04:47:58.250Z,83.54
2019-03-04T04:49:05.199Z,83.25
2019-03-04T04:50:18.577Z,83.12
2019-03-04T04:51:23.218Z,83.19
2019-03-04T04:52:27.858Z,83.11
2019-03-04T04:53:32.139Z,83.05
2019-03-04T04:54:36.394Z,83.10
2019-03-04T04:55:40.639Z,82.87
2019-03-04T04:56:44.914Z,83.09
2019-03-04T04:57:49.183Z,83.14
2019-03-04T04:58:53.460Z,82.85
2019-03-04T05:00:00.495Z,82.68
2019-03-04T05:01:09.085Z,82.54
2019-03-04T05:02:13.334Z,82.49
2019-03-04T05:03:20.997Z,82.27
2019-03-04T05:04:25.258Z,82.48
2019-03-04T05:05:32.860Z,82.24
2019-03-04T05:06:37.086Z,82.00
2019-03-04T05:07:41.714Z,81.65
2019-03-04T05:08:46.079Z,81.73
2019-03-04T05:09:50.358Z,81.39
2019-03-04T05:10:54.597Z,81.28
2019-03-04T05:11:59.828Z,81.21
2019-03-04T05:13:04.213Z,81.32
2019-03-04T05:14:08.747Z,81.54
2019-03-04T05:15:14.736Z,81.47
2019-03-04T05:16:22.221Z,81.52
2019-03-04T05:17:29.462Z,81.37
2019-03-04T05:18:34.402Z,81.28
2019-03-04T05:19:38.694Z,81.40
2019-03-04T05:20:43.397Z,81.14
2019-03-04T05:21:47.632Z,81.02
2019-03-04T05:22:51.883Z,80.98
2019-03-04T05:23:56.456Z,80.96
2019-03-04T05:25:00.735Z,81.05
2019-03-04T05:26:05.687Z,81.29
2019-03-04T05:27:09.943Z,81.59
2019-03-04T05:28:17.437Z,81.66
2019-03-04T05:29:24.686Z,81.71
2019-03-04T05:30:32.316Z,82.31
2019-03-04T05:31:36.717Z,82.18
2019-03-04T05:48:55.542Z,82.48
2019-03-04T05:49:59.802Z,82.28
2019-03-04T05:51:04.215Z,82.28
2019-03-04T05:52:09.127Z,81.86
2019-03-04T05:53:16.015Z,81.78
2019-03-04T05:54:20.279Z,81.78
2019-03-04T05:55:24.542Z,81.43
2019-03-04T05:56:28.858Z,81.61
2019-03-04T05:57:36.047Z,81.45
2019-03-04T05:58:40.330Z,81.58
2019-03-04T05:59:47.619Z,81.77
2019-03-04T06:01:12.454Z,81.51
2019-03-04T06:02:16.752Z,81.75
2019-03-04T06:03:22.645Z,81.43
2019-03-04T06:04:26.928Z,81.40
2019-03-04T06:05:33.904Z,81.52
2019-03-04T06:06:42.767Z,81.35
2019-03-04T06:07:57.656Z,81.74
2019-03-04T06:09:01.887Z,81.63
2019-03-04T06:10:10.364Z,81.73
2019-03-04T06:11:14.907Z,81.81
2019-03-04T06:12:22.141Z,82.21
2019-03-04T06:13:26.646Z,81.97
2019-03-04T06:14:30.926Z,81.76
2019-03-04T06:15:35.168Z,82.15
2019-03-04T06:16:47.048Z,81.91
2019-03-04T06:17:45.470Z,81.94
2019-03-04T06:18:49.749Z,81.84
2019-03-04T06:19:54.020Z,82.03
2019-03-04T06:21:01.073Z,81.96
2019-03-04T06:22:05.326Z,82.04
2019-03-04T06:23:12.543Z,82.31
2019-03-04T06:24:16.786Z,82.23
2019-03-04T06:25:26.866Z,82.35
2019-03-04T06:26:31.369Z,82.22
2019-03-04T06:27:35.631Z,81.69
2019-03-04T06:28:39.898Z,81.31
2019-03-04T06:29:47.143Z,81.76
2019-03-04T06:30:51.420Z,81.66
2019-03-04T06:31:55.736Z,81.55
2019-03-04T06:32:59.996Z,81.46
2019-03-04T06:34:04.237Z,80.86
2019-03-04T06:35:10.573Z,80.54
2019-03-04T06:36:14.836Z,79.97
2019-03-04T06:37:19.107Z,80.17
2019-03-04T06:38:23.534Z,79.82
2019-03-04T06:39:27.814Z,79.97
2019-03-04T06:40:35.125Z,80.35
2019-03-04T06:41:39.445Z,80.31
2019-03-04T06:42:46.504Z,80.37
2019-03-04T06:43:50.798Z,80.07
2019-03-04T06:44:55.148Z,79.66
2019-03-04T06:46:03.546Z,79.45
2019-03-04T06:47:11.506Z,79.20
2019-03-04T06:48:15.749Z,79.06
2019-03-04T06:49:20.147Z,79.16
2019-03-04T06:50:56.974Z,79.14
2019-03-04T06:52:01.222Z,79.26
2019-03-04T06:53:08.759Z,79.31
2019-03-04T06:54:19.137Z,78.87
2019-03-04T06:55:26.658Z,79.17
2019-03-04T06:56:36.714Z,79.06
2019-03-04T06:57:41.016Z,79.29
2019-03-04T06:59:03.610Z,79.89
2019-03-04T07:00:26.259Z,79.77
2019-03-04T07:01:45.986Z,79.26
2019-03-04T07:02:53.373Z,79.04
2019-03-04T07:04:01.132Z,79.13
2019-03-04T07:05:32.753Z,78.56
2019-03-04T07:06:37.007Z,78.41
2019-03-04T07:07:41.283Z,78.54
2019-03-04T07:08:48.799Z,78.44
2019-03-04T07:09:53.066Z,77.99
2019-03-04T07:10:57.419Z,78.08
2019-03-04T07:12:01.666Z,77.84
2019-03-04T07:13:05.905Z,77.84
2019-03-04T07:14:10.220Z,78.10
2019-03-04T07:15:14.463Z,78.54
2019-03-04T07:16:21.820Z,78.47
2019-03-04T07:17:26.068Z,78.38
2019-03-04T07:18:30.319Z,78.24
2019-03-04T07:19:34.742Z,78.29
2019-03-04T07:20:41.961Z,78.48
2019-03-04T07:21:47.931Z,78.71
2019-03-04T07:22:52.332Z,78.25
2019-03-04T07:23:56.573Z,78.44
2019-03-04T07:25:00.838Z,78.59
2019-03-04T07:26:05.125Z,78.72
2019-03-04T07:27:09.368Z,78.71
2019-03-04T07:28:13.623Z,78.35
2019-03-04T07:29:17.895Z,78.32
2019-03-04T07:30:22.110Z,78.13
2019-03-04T07:31:26.380Z,78.07
2019-03-04T07:32:31.621Z,78.17
2019-03-04T07:33:35.876Z,78.25
2019-03-04T07:34:40.124Z,77.95
2019-03-04T07:35:44.820Z,78.29
2019-03-04T07:36:52.213Z,77.86
2019-03-04T07:38:14.910Z,78.04
2019-03-04T07:39:21.920Z,78.50
2019-03-04T07:40:26.171Z,77.94
2019-03-04T07:41:30.460Z,78.29
2019-03-04T07:42:34.732Z,77.27
2019-03-04T07:43:39.016Z,77.09
2019-03-04T07:44:46.111Z,77.12
2019-03-04T07:45:53.135Z,77.02
2019-03-04T07:46:57.420Z,76.85
2019-03-04T07:48:01.734Z,76.98
2019-03-04T07:49:06.028Z,77.36
2019-03-04T07:50:13.875Z,77.31
2019-03-04T07:51:20.839Z,76.92
2019-03-04T07:52:25.576Z,76.54
2019-03-04T07:53:29.839Z,76.36
2019-03-04T07:54:37.661Z,76.62
2019-03-04T07:55:42.008Z,76.67
2019-03-04T07:56:46.330Z,76.40
2019-03-04T07:57:51.129Z,76.36
2019-03-04T07:58:55.421Z,76.63
2019-03-04T07:59:59.702Z,76.23
2019-03-04T08:01:08.467Z,76.32
2019-03-04T08:02:12.749Z,76.42
2019-03-04T08:03:16.990Z,75.90
2019-03-04T08:04:24.265Z,75.94
2019-03-04T08:05:31.415Z,75.81
2019-03-04T08:06:36.723Z,75.62
2019-03-04T08:07:50.101Z,75.00
2019-03-04T08:09:12.202Z,75.46
2019-03-04T08:10:53.207Z,75.04
2019-03-04T08:12:30.661Z,75.17
2019-03-04T08:13:41.166Z,74.90
2019-03-04T08:14:47.926Z,75.07
2019-03-04T08:15:52.249Z,75.01
2019-03-04T08:16:56.663Z,74.93
2019-03-04T08:18:00.931Z,74.87
2019-03-04T08:19:05.466Z,74.67
2019-03-04T08:20:09.758Z,74.45
2019-03-04T08:21:16.975Z,74.27
2019-03-04T08:22:21.262Z,74.06
2019-03-04T08:23:25.552Z,73.77
2019-03-04T08:24:32.684Z,73.67
2019-03-04T08:25:37.022Z,73.56
2019-03-04T08:26:41.474Z,73.85
2019-03-04T08:27:48.723Z,73.17
2019-03-04T08:28:52.968Z,73.76
2019-03-04T08:29:57.223Z,72.96
2019-03-04T08:31:02.446Z,72.39
2019-03-04T08:32:06.755Z,72.72
2019-03-04T08:33:11.068Z,72.06
2019-03-04T08:34:15.401Z,72.35
2019-03-04T08:35:20.694Z,72.81
2019-03-04T08:36:28.270Z,73.46
2019-03-04T08:37:32.559Z,73.45
2019-03-04T08:38:39.807Z,73.15
2019-03-04T08:39:44.130Z,73.92
2019-03-04T08:40:51.061Z,73.45
2019-03-04T08:41:55.389Z,73.44
2019-03-04T08:42:59.666Z,72.60
2019-03-04T08:44:06.672Z,72.37
2019-03-04T08:45:13.658Z,72.61
2019-03-04T08:46:22.332Z,72.99
2019-03-04T08:47:28.214Z,72.53
2019-03-04T08:48:35.564Z,72.31
2019-03-04T08:49:40.004Z,71.89
2019-03-04T08:50:47.021Z,71.47
2019-03-04T08:51:51.301Z,71.08
2019-03-04T08:52:58.594Z,71.34
2019-03-04T08:54:06.514Z,70.43
2019-03-04T08:55:18.048Z,70.34
2019-03-04T08:56:22.281Z,70.13
2019-03-04T08:57:26.538Z,69.97
2019-03-04T08:58:34.359Z,70.29
2019-03-04T08:59:38.830Z,70.12
2019-03-04T09:00:46.319Z,69.43
2019-03-04T09:01:50.940Z,69.43
2019-03-04T09:02:55.201Z,70.05
2019-03-04T09:03:59.552Z,70.01
2019-03-04T09:05:06.099Z,70.14
2019-03-04T09:06:10.315Z,69.78
2019-03-04T09:07:17.707Z,69.21
2019-03-04T09:08:21.992Z,69.65
2019-03-04T09:09:27.268Z,70.62
2019-03-04T09:10:33.253Z,70.62
2019-03-04T09:11:37.942Z,69.99
2019-03-04T09:12:42.235Z,69.58
2019-03-04T09:13:46.508Z,69.78
2019-03-04T09:14:50.914Z,70.01
2019-03-04T09:15:55.151Z,70.21
2019-03-04T09:16:59.449Z,69.74
2019-03-04T09:18:03.704Z,69.65
2019-03-04T09:19:07.981Z,69.65
2019-03-04T09:20:17.162Z,69.94
2019-03-04T09:21:21.408Z,69.93
2019-03-04T09:22:25.745Z,69.90
2019-03-04T09:23:31.629Z,69.90
2019-03-04T09:24:38.970Z,69.52
2019-03-04T09:25:52.132Z,69.67
2019-03-04T09:26:56.387Z,70.23
2019-03-04T09:28:01.001Z,70.23
2019-03-04T09:29:06.252Z,69.86
2019-03-04T09:30:13.127Z,70.33
2019-03-04T09:31:17.440Z,70.44
2019-03-04T09:32:22.106Z,70.14
2019-03-04T09:33:27.167Z,70.20
2019-03-04T09:34:31.541Z,70.50
2019-03-04T09:35:35.794Z,69.82
2019-03-04T09:36:40.122Z,69.74
2019-03-04T09:37:47.024Z,69.59
2019-03-04T09:38:51.301Z,69.69
2019-03-04T09:39:55.941Z,69.67
2019-03-04T09:41:00.200Z,69.67
2019-03-04T09:42:09.082Z,69.89
2019-03-04T09:43:13.505Z,69.63
2019-03-04T09:44:17.779Z,69.81
2019-03-04T09:45:22.020Z,69.58
2019-03-04T09:46:26.330Z,69.30
2019-03-04T09:47:30.879Z,69.43
2019-03-04T09:54:22.941Z,68.26
2019-03-04T09:55:27.197Z,68.41
2019-03-04T09:56:31.482Z,68.61
2019-03-04T09:57:36.824Z,68.99
2019-03-04T09:58:41.156Z,68.99
2019-03-04T09:59:47.040Z,68.64
2019-03-04T10:01:09.648Z,68.79
2019-03-04T10:02:13.974Z,68.99
2019-03-04T10:03:39.659Z,68.65
2019-03-04T10:04:52.513Z,68.96
2019-03-04T10:06:02.800Z,68.75
2019-03-04T10:07:34.647Z,68.53
2019-03-04T10:08:51.083Z,68.43
2019-03-04T10:09:58.985Z,67.97
2019-03-04T10:11:06.506Z,68.22
2019-03-04T10:12:30.463Z,68.01
2019-03-04T10:13:43.175Z,67.05
2019-03-04T10:15:09.069Z,67.76
2019-03-04T10:16:19.427Z,67.76
2019-03-04T10:17:46.247Z,67.37
2019-03-04T10:19:13.361Z,66.50
2019-03-04T10:20:29.865Z,66.97
2019-03-04T10:21:53.558Z,66.45
2019-03-04T10:23:06.865Z,66.44
2019-03-04T10:24:33.149Z,66.16
2019-03-04T10:25:57.885Z,66.58
2019-03-04T10:27:11.117Z,66.61
2019-03-04T10:28:50.447Z,67.64
2019-03-04T10:30:19.214Z,67.64
2019-03-04T10:31:41.908Z,67.80
2019-03-04T10:33:07.506Z,68.25
2019-03-04T10:34:48.583Z,68.25
2019-03-04T10:36:04.833Z,68.00
2019-03-04T10:37:30.145Z,66.25
2019-03-04T10:38:46.129Z,66.40
2019-03-04T10:40:17.832Z,66.15
2019-03-04T10:41:28.160Z,66.58
2019-03-04T10:42:50.490Z,65.84
2019-03-04T10:44:12.829Z,64.90
2019-03-04T10:45:35.200Z,65.04
2019-03-04T10:46:54.132Z,63.63
2019-03-04T10:47:59.524Z,62.96
2019-03-04T10:49:03.756Z,62.11
2019-03-04T10:50:10.260Z,61.91
2019-03-04T10:51:14.759Z,61.43
2019-03-04T10:52:19.566Z,61.26
2019-03-04T10:53:24.274Z,60.18
2019-03-04T10:54:28.593Z,59.28
2019-03-04T10:55:41.706Z,59.80
2019-03-04T10:56:41.597Z,59.79
2019-03-04T10:57:45.123Z,59.22
2019-03-04T10:58:49.375Z,59.42
2019-03-04T10:59:53.621Z,59.59
2019-03-04T11:00:57.885Z,59.48
2019-03-04T11:02:02.162Z,59.46
2019-03-04T11:03:06.432Z,59.07
2019-03-04T11:04:10.740Z,59.62
2019-03-04T11:05:14.993Z,58.42
2019-03-04T11:06:19.325Z,58.10
2019-03-04T11:07:23.915Z,56.59
2019-03-04T11:08:28.168Z,56.67
2019-03-04T11:09:32.410Z,56.29
2019-03-04T11:10:36.657Z,55.33
2019-03-04T11:11:41.070Z,55.28
2019-03-04T11:12:45.317Z,55.16
2019-03-04T11:13:49.586Z,54.50
2019-03-04T11:14:53.856Z,54.53
2019-03-04T11:15:58.114Z,54.77
2019-03-04T11:17:02.398Z,54.32
2019-03-04T11:18:06.715Z,54.40
2019-03-04T11:19:10.988Z,54.94
2019-03-04T11:20:15.247Z,55.48
2019-03-04T11:21:19.496Z,54.12
2019-03-04T11:22:23.814Z,51.34
2019-03-04T11:23:29.266Z,49.97
2019-03-04T11:24:33.529Z,49.49
2019-03-04T11:25:38.095Z,49.29
2019-03-04T11:26:42.361Z,48.42
2019-03-04T11:27:47.482Z,47.54
2019-03-04T11:28:51.733Z,47.70
2019-03-04T11:29:55.993Z,46.57
2019-03-04T11:31:00.263Z,52.58
2019-03-04T11:32:04.675Z,57.62
2019-03-04T11:33:08.946Z,62.96
2019-03-04T11:34:13.200Z,65.35
2019-03-04T11:35:17.713Z,67.30
2019-03-04T11:36:21.967Z,67.30
2019-03-04T11:37:26.238Z,68.63
2019-03-04T11:38:38.236Z,69.97
2019-03-04T11:39:49.627Z,71.48
2019-03-04T11:40:53.899Z,72.99
2019-03-04T11:41:58.234Z,74.61
2019-03-04T11:43:02.500Z,75.33
2019-03-04T11:44:06.829Z,76.04
2019-03-04T11:45:14.029Z,77.33
2019-03-04T11:46:20.713Z,76.85
2019-03-04T11:47:25.714Z,78.21
2019-03-04T11:48:30.001Z,79.37
2019-03-04T11:49:34.556Z,79.71
2019-03-04T11:50:38.834Z,80.17
2019-03-04T11:51:43.070Z,78.95
2019-03-04T11:52:47.321Z,78.75
2019-03-04T11:53:51.765Z,77.71
2019-03-04T11:54:56.257Z,77.46
2019-03-04T11:56:00.742Z,77.42
2019-03-04T11:57:05.215Z,77.32
2019-03-04T11:58:09.540Z,77.86
2019-03-04T11:59:13.832Z,78.03
2019-03-04T12:00:25.197Z,78.07
2019-03-04T12:01:37.177Z,78.63
2019-03-04T12:02:41.516Z,76.67
2019-03-04T12:03:45.806Z,76.36
2019-03-04T12:04:50.480Z,76.13
2019-03-04T12:05:55.193Z,76.12
2019-03-04T12:06:59.562Z,77.04
2019-03-04T12:08:03.960Z,79.13
2019-03-04T12:09:11.432Z,79.30
2019-03-04T12:10:17.916Z,79.71
2019-03-04T12:11:22.163Z,79.48
2019-03-04T12:12:26.473Z,79.12
2019-03-04T12:13:30.844Z,79.70
2019-03-04T12:14:35.211Z,80.42
2019-03-04T12:15:39.754Z,79.83
2019-03-04T12:16:45.786Z,78.97
2019-03-04T12:17:50.166Z,77.02
2019-03-04T12:18:54.513Z,77.43
2019-03-04T12:19:58.792Z,78.50
2019-03-04T12:21:03.138Z,77.03
2019-03-04T12:22:07.920Z,76.17
2019-03-04T12:23:12.345Z,76.18
2019-03-04T12:24:16.694Z,76.11
2019-03-04T12:25:22.078Z,75.77
2019-03-04T12:26:26.400Z,75.49
2019-03-04T12:27:31.086Z,74.85
2019-03-04T12:28:35.464Z,74.19
2019-03-04T12:29:39.797Z,73.37
2019-03-04T12:30:44.382Z,73.11
2019-03-04T12:31:50.331Z,72.32
2019-03-04T12:32:54.892Z,70.70
2019-03-04T12:33:59.313Z,69.71
2019-03-04T12:35:07.032Z,69.44
2019-03-04T12:36:11.353Z,69.68
2019-03-04T12:37:16.324Z,69.75
2019-03-04T12:38:20.612Z,68.64
2019-03-04T12:39:25.058Z,68.66
2019-03-04T12:40:29.462Z,67.79
2019-03-04T12:41:34.072Z,68.08
2019-03-04T12:42:38.538Z,67.22
2019-03-04T12:43:42.867Z,67.77
2019-03-04T12:44:48.629Z,67.56
2019-03-04T12:45:52.961Z,67.63
2019-03-04T12:46:57.288Z,67.36
2019-03-04T12:48:01.691Z,66.41
2019-03-04T12:49:06.134Z,66.00
2019-03-04T12:50:13.624Z,66.34
2019-03-04T12:51:23.054Z,65.47
2019-03-04T12:52:23.988Z,65.55
2019-03-04T12:53:37.052Z,64.86
2019-03-04T12:54:34.482Z,64.42
2019-03-04T12:55:38.823Z,63.99
2019-03-04T12:56:44.427Z,64.34
2019-03-04T12:57:49.281Z,63.75
2019-03-04T12:58:54.058Z,62.26
2019-03-04T12:59:58.425Z,62.95
2019-03-04T13:01:02.817Z,63.70
2019-03-04T13:02:07.788Z,62.34
2019-03-04T13:03:17.837Z,62.34
2019-03-04T13:04:22.216Z,62.22
2019-03-04T13:05:26.584Z,62.51
2019-03-04T13:06:30.907Z,62.28
2019-03-04T13:07:35.236Z,61.09
2019-03-04T13:08:39.992Z,62.17
2019-03-04T13:09:44.360Z,62.69
2019-03-04T13:10:48.675Z,63.13
2019-03-04T13:11:53.084Z,62.09
2019-03-04T13:12:57.431Z,62.18
2019-03-04T13:14:01.841Z,62.18
2019-03-04T13:15:16.423Z,60.66
2019-03-04T13:16:20.861Z,61.62
2019-03-04T13:17:26.776Z,61.62
2019-03-04T13:18:31.111Z,61.13
2019-03-04T13:19:37.123Z,62.16
2019-03-04T13:20:41.760Z,62.14
2019-03-04T13:21:46.071Z,62.14
2019-03-04T13:22:51.199Z,61.83
2019-03-04T13:23:56.996Z,61.85
2019-03-04T13:25:01.371Z,61.45
2019-03-04T13:26:05.763Z,61.76
2019-03-04T13:27:10.179Z,61.33
2019-03-04T13:28:14.951Z,62.33
2019-03-04T13:29:19.315Z,62.06
2019-03-04T13:30:27.876Z,62.82
2019-03-04T13:31:33.370Z,62.17
2019-03-04T13:32:37.687Z,61.32
2019-03-04T13:33:43.755Z,61.21
2019-03-04T13:34:48.121Z,60.56
2019-03-04T13:35:52.515Z,60.36
2019-03-04T13:36:56.952Z,61.09
2019-03-04T13:38:01.657Z,59.73
2019-03-04T13:39:06.845Z,59.75
2019-03-04T13:40:13.149Z,58.85
2019-03-04T13:41:17.920Z,58.85
2019-03-04T13:42:22.255Z,58.85
2019-03-04T13:43:26.680Z,57.91
2019-03-04T13:44:32.721Z,57.37
2019-03-04T13:45:37.113Z,58.02
2019-03-04T13:46:41.525Z,56.66
2019-03-04T13:47:46.617Z,56.66
2019-03-04T13:48:51.010Z,56.27
2019-03-04T13:49:55.426Z,56.26
2019-03-04T13:51:00.779Z,55.09
2019-03-04T13:52:05.234Z,55.09
2019-03-04T13:53:11.846Z,52.14
2019-03-04T13:54:17.332Z,52.14
2019-03-04T13:55:22.063Z,52.17
2019-03-04T13:56:27.479Z,52.45
2019-03-04T13:57:31.868Z,52.04
2019-03-04T13:58:36.214Z,51.82
2019-03-04T13:59:40.619Z,50.10
2019-03-04T14:00:46.719Z,50.40
2019-03-04T14:01:51.127Z,50.63
2019-03-04T14:02:58.251Z,48.61
2019-03-04T14:04:02.594Z,49.25
2019-03-04T14:05:10.553Z,48.29
2019-03-04T14:06:15.221Z,47.70
2019-03-04T14:07:19.641Z,46.49
2019-03-04T14:08:24.712Z,46.69
2019-03-04T14:09:29.478Z,45.38
2019-03-04T14:10:36.449Z,45.20
2019-03-04T14:11:40.879Z,45.89
2019-03-04T14:12:45.547Z,44.92
2019-03-04T14:13:49.968Z,45.57
2019-03-04T14:14:54.626Z,45.64
2019-03-04T14:15:59.046Z,45.85
2019-03-04T14:17:03.406Z,45.74
2019-03-04T14:18:07.756Z,44.43
2019-03-04T14:19:12.113Z,44.26
2019-03-04T14:20:16.483Z,44.27
2019-03-04T14:21:21.027Z,44.16
2019-03-04T14:22:25.474Z,44.51
2019-03-04T14:23:31.235Z,44.20
2019-03-04T14:24:35.571Z,45.74
2019-03-04T14:25:40.020Z,45.31
2019-03-04T14:26:45.640Z,46.36
2019-03-04T14:27:50.092Z,47.29
2019-03-04T14:28:54.449Z,45.92
2019-03-04T14:30:00.937Z,45.85
2019-03-04T14:31:07.617Z,45.42
2019-03-04T14:32:12.118Z,45.11
2019-03-04T14:33:23.887Z,45.55
2019-03-04T14:34:28.536Z,46.87
2019-03-04T14:35:33.815Z,46.27
2019-03-04T14:36:38.923Z,44.90
2019-03-04T14:37:45.491Z,44.36